Time;durP1;ratioP1;P1;durP2;ratioP2;P2;SDS_P1;SDS_P2;PMS_P1;PMS_P2;Temp;Humidity;BMP_temperature;BMP_pressure;BME280_temperature;BME280_humidity;BME280_pressure;Samples;Min_cycle;Max_cycle;Signal;HPM_P1;HPM_P2
2022/04/12 00:00:27;;;;;;;3.13;2.10;;;11.20;99.90;;;;;;4996349;28;20177;-67
2022/04/12 00:02:53;;;;;;;2.70;2.00;;;11.20;99.90;;;;;;4996462;28;20183;-67
2022/04/12 00:05:21;;;;;;;2.58;1.75;;;11.20;99.90;;;;;;4955228;28;20192;-67
2022/04/12 00:07:47;;;;;;;2.97;2.00;;;11.30;99.90;;;;;;4960699;28;20216;-67
2022/04/12 00:10:13;;;;;;;3.85;2.03;;;11.30;99.90;;;;;;4966141;28;20267;-67
2022/04/12 00:12:40;;;;;;;2.97;1.98;;;11.30;99.90;;;;;;4991059;28;20281;-67
2022/04/12 00:15:07;;;;;;;3.08;1.88;;;11.30;99.90;;;;;;4968823;28;20207;-67
2022/04/12 00:20:20;;;;;;;2.10;1.73;;;11.30;99.90;;;;;;4971688;28;20287;-66
2022/04/12 00:22:47;;;;;;;3.90;2.00;;;11.30;99.90;;;;;;4992482;28;20181;-66
2022/04/12 00:25:13;;;;;;;2.40;1.90;;;11.20;99.90;;;;;;4999926;28;20207;-65
2022/04/12 00:27:41;;;;;;;3.47;1.70;;;11.20;99.90;;;;;;4976578;28;20192;-67
2022/04/12 00:30:13;;;;;;;2.85;2.00;;;11.20;99.90;;;;;;4973360;28;20192;-66
2022/04/12 00:32:39;;;;;;;2.40;1.80;;;11.20;99.90;;;;;;5005445;28;20208;-67
2022/04/12 00:35:06;;;;;;;2.03;1.63;;;11.20;99.90;;;;;;4999069;28;20230;-67
2022/04/12 00:37:37;;;;;;;3.47;1.70;;;11.10;99.90;;;;;;4994531;28;20275;-66
2022/04/12 00:40:05;;;;;;;3.07;1.97;;;11.10;99.90;;;;;;5004707;28;20200;-69
2022/04/12 00:42:31;;;;;;;2.38;1.92;;;11.10;99.90;;;;;;4999260;28;20489;-67
2022/04/12 00:44:57;;;;;;;2.83;2.00;;;11.00;99.90;;;;;;4993592;28;20275;-67
2022/04/12 00:47:26;;;;;;;3.40;1.70;;;11.00;99.90;;;;;;4968178;28;20214;-66
2022/04/12 00:49:56;;;;;;;2.95;1.85;;;11.00;99.90;;;;;;4991777;28;20195;-68
2022/04/12 00:52:22;;;;;;;2.42;1.80;;;10.90;99.90;;;;;;4962600;28;20191;-66
2022/04/12 00:54:53;;;;;;;2.35;1.77;;;10.90;99.90;;;;;;4971194;28;20205;-66
2022/04/12 00:57:18;;;;;;;2.22;1.70;;;10.90;99.90;;;;;;4993824;28;20177;-66
2022/04/12 00:59:45;;;;;;;1.85;1.70;;;10.90;99.90;;;;;;4965919;28;20227;-66
2022/04/12 01:02:10;;;;;;;2.72;2.00;;;10.90;99.90;;;;;;4976481;28;20180;-66
2022/04/12 01:04:36;;;;;;;1.90;1.70;;;10.80;99.90;;;;;;4972444;28;20198;-65
2022/04/12 01:07:03;;;;;;;2.33;1.70;;;10.80;99.90;;;;;;4968411;28;20239;-66
2022/04/12 01:09:29;;;;;;;3.75;2.00;;;10.70;99.90;;;;;;4966364;28;20190;-67
2022/04/12 01:11:57;;;;;;;2.07;1.60;;;10.70;99.90;;;;;;4966934;28;20189;-67
2022/04/12 01:14:24;;;;;;;2.30;1.93;;;10.70;99.90;;;;;;5005890;28;20238;-66
2022/04/12 01:16:52;;;;;;;3.47;1.77;;;10.70;99.90;;;;;;4973546;28;20332;-67
2022/04/12 01:19:18;;;;;;;2.43;1.90;;;10.60;99.90;;;;;;5002185;28;20445;-67
2022/04/12 01:21:56;;;;;;;2.40;1.70;;;10.60;99.90;;;;;;5004441;28;20216;-66
2022/04/12 01:24:24;;;;;;;1.63;1.33;;;10.60;99.90;;;;;;4959587;28;20207;-67
2022/04/12 01:26:51;;;;;;;2.17;1.60;;;10.60;99.90;;;;;;4998463;28;20207;-66
2022/04/12 01:29:18;;;;;;;3.37;1.90;;;10.60;99.90;;;;;;4999241;28;20213;-67
2022/04/12 01:31:45;;;;;;;1.90;1.47;;;10.60;99.90;;;;;;4975574;28;20180;-67
2022/04/12 01:34:11;;;;;;;2.50;1.53;;;10.60;99.90;;;;;;4999178;28;20211;-67
2022/04/12 01:36:37;;;;;;;2.37;1.70;;;10.50;99.90;;;;;;4968102;28;20202;-67
2022/04/12 01:39:05;;;;;;;2.83;1.63;;;10.60;99.90;;;;;;4975803;28;20184;-67
2022/04/12 01:41:31;;;;;;;3.03;1.70;;;10.60;99.90;;;;;;4972377;28;20175;-67
2022/04/12 01:43:57;;;;;;;2.35;1.63;;;10.60;99.90;;;;;;5000142;28;20184;-67
2022/04/12 01:46:22;;;;;;;3.13;1.90;;;10.70;99.90;;;;;;4976188;28;20218;-68
2022/04/12 01:48:50;;;;;;;3.23;1.67;;;10.60;99.90;;;;;;4970488;28;20180;-68
2022/04/12 01:51:16;;;;;;;1.88;1.70;;;10.70;99.90;;;;;;4973582;28;20211;-66
2022/04/12 01:53:43;;;;;;;2.40;1.52;;;10.70;99.90;;;;;;5010921;28;20204;-68
2022/04/12 01:56:08;;;;;;;4.90;1.95;;;10.70;99.90;;;;;;4989378;28;20254;-68
2022/04/12 01:58:35;;;;;;;2.23;1.80;;;10.70;99.90;;;;;;4981260;28;20184;-69
2022/04/12 02:01:02;;;;;;;2.45;1.80;;;10.70;99.90;;;;;;4995657;28;20214;-65
2022/04/12 02:03:28;;;;;;;2.30;1.70;;;10.70;99.90;;;;;;4993088;28;20215;-68
2022/04/12 02:05:59;;;;;;;2.93;1.60;;;10.70;99.90;;;;;;4955480;28;20216;-68
2022/04/12 02:08:26;;;;;;;2.20;1.80;;;10.70;99.90;;;;;;4994628;28;20184;-68
2022/04/12 02:10:54;;;;;;;2.35;1.80;;;10.70;99.90;;;;;;4969806;28;20188;-67
2022/04/12 02:13:22;;;;;;;2.10;1.60;;;10.80;99.90;;;;;;4998144;28;20287;-66
2022/04/12 02:15:50;;;;;;;2.97;1.90;;;10.80;99.90;;;;;;4998431;28;20204;-67
2022/04/12 02:18:15;;;;;;;3.00;2.03;;;10.80;99.90;;;;;;4992824;28;20172;-66
2022/04/12 02:20:43;;;;;;;2.28;1.77;;;10.80;99.90;;;;;;4969386;28;20206;-67
2022/04/12 02:23:13;;;;;;;2.10;1.80;;;10.80;99.90;;;;;;4991267;28;20188;-67
2022/04/12 02:25:39;;;;;;;2.10;1.80;;;10.90;99.90;;;;;;4994450;28;20208;-67
2022/04/12 02:28:05;;;;;;;2.53;1.90;;;10.90;99.90;;;;;;4990228;28;20215;-67
2022/04/12 02:30:30;;;;;;;2.03;1.50;;;10.90;99.90;;;;;;4977594;28;20221;-67
2022/04/12 02:32:58;;;;;;;3.08;1.80;;;10.90;99.90;;;;;;4989540;28;20195;-66
2022/04/12 02:35:25;;;;;;;2.03;1.73;;;10.90;99.90;;;;;;5004348;28;20207;-68
2022/04/12 02:37:51;;;;;;;2.47;1.88;;;10.90;99.90;;;;;;4988274;28;20192;-67
2022/04/12 02:40:19;;;;;;;1.90;1.70;;;10.90;99.90;;;;;;4994394;28;20201;-67
2022/04/12 02:42:45;;;;;;;2.75;1.88;;;11.00;99.90;;;;;;4974360;28;20219;-67
2022/04/12 02:45:11;;;;;;;3.90;2.00;;;11.00;99.90;;;;;;4974776;28;20219;-67
2022/04/12 02:47:36;;;;;;;3.30;2.10;;;11.00;99.90;;;;;;4994644;28;20267;-67
2022/04/12 02:50:08;;;;;;;4.45;2.05;;;11.10;99.90;;;;;;5002661;28;20184;-67
2022/04/12 02:52:33;;;;;;;3.45;2.20;;;11.10;99.90;;;;;;4984689;28;20184;-67
2022/04/12 02:54:59;;;;;;;2.15;1.88;;;11.10;99.90;;;;;;5013594;28;20216;-67
2022/04/12 02:57:25;;;;;;;2.30;2.00;;;11.20;99.90;;;;;;4993957;28;20253;-65
2022/04/12 02:59:50;;;;;;;2.13;1.73;;;11.20;99.90;;;;;;4983061;28;20242;-67
2022/04/12 03:02:16;;;;;;;2.20;1.90;;;11.20;99.90;;;;;;4963144;28;20470;-68
2022/04/12 03:04:44;;;;;;;3.88;2.10;;;11.30;99.90;;;;;;5001315;28;20188;-67
2022/04/12 03:07:12;;;;;;;2.03;1.52;;;11.30;99.90;;;;;;4998847;28;20290;-68
2022/04/12 03:09:37;;;;;;;2.08;1.55;;;11.30;99.90;;;;;;5001709;28;20259;-67
2022/04/12 03:12:06;;;;;;;2.10;1.63;;;11.40;99.90;;;;;;4992334;28;20270;-67
2022/04/12 03:14:32;;;;;;;4.03;1.75;;;11.40;99.90;;;;;;4996513;28;20212;-68
2022/04/12 03:16:57;;;;;;;3.28;1.70;;;11.40;99.90;;;;;;4970521;28;20263;-68
2022/04/12 03:19:23;;;;;;;2.95;1.83;;;11.40;99.90;;;;;;5002556;28;20330;-67
2022/04/12 03:21:51;;;;;;;3.05;2.00;;;11.40;99.90;;;;;;4993935;28;20172;-68
2022/04/12 03:24:16;;;;;;;2.15;1.70;;;11.40;99.90;;;;;;5002320;28;20195;-68
2022/04/12 03:26:42;;;;;;;2.67;2.22;;;11.40;99.90;;;;;;4963616;28;20303;-68
2022/04/12 03:29:08;;;;;;;1.80;1.48;;;11.40;99.90;;;;;;4972120;28;20184;-68
2022/04/12 03:31:36;;;;;;;2.42;1.85;;;11.40;99.90;;;;;;4969158;28;20197;-68
2022/04/12 03:34:01;;;;;;;1.95;1.70;;;11.40;99.90;;;;;;4972610;28;20250;-68
2022/04/12 03:36:27;;;;;;;4.55;1.92;;;11.40;99.90;;;;;;4972247;28;20199;-68
2022/04/12 03:38:55;;;;;;;2.10;1.75;;;11.40;99.90;;;;;;5004346;28;20199;-66
2022/04/12 03:41:23;;;;;;;3.72;1.83;;;11.40;99.90;;;;;;5002430;28;20492;-65
2022/04/12 03:43:51;;;;;;;4.75;2.53;;;11.40;99.90;;;;;;4998209;28;21740;-67
2022/04/12 03:46:16;;;;;;;2.70;2.22;;;11.40;99.90;;;;;;4965839;28;20177;-67
2022/04/12 03:48:45;;;;;;;2.47;1.80;;;11.40;99.90;;;;;;4999907;28;20180;-67
2022/04/12 03:51:11;;;;;;;3.70;2.58;;;11.40;99.90;;;;;;5005611;28;20187;-67
2022/04/12 03:53:37;;;;;;;4.95;2.72;;;11.50;99.90;;;;;;4997782;28;20270;-67
2022/04/12 03:56:07;;;;;;;4.57;2.65;;;11.50;99.90;;;;;;4971035;28;20216;-67
2022/04/12 03:58:39;;;;;;;4.32;2.63;;;11.50;99.90;;;;;;4992053;28;20283;-66
2022/04/12 04:01:08;;;;;;;3.28;2.40;;;11.50;99.90;;;;;;4969717;28;20205;-67
2022/04/12 04:03:36;;;;;;;4.47;2.50;;;11.50;99.90;;;;;;5000264;28;20207;-67
2022/04/12 04:06:07;;;;;;;4.35;2.45;;;11.50;99.90;;;;;;4998470;28;20194;-67
2022/04/12 04:08:38;;;;;;;4.20;2.65;;;11.50;99.90;;;;;;4992072;28;20267;-67
2022/04/12 04:11:03;;;;;;;3.10;2.15;;;11.50;99.90;;;;;;4970009;28;20165;-67
2022/04/12 04:13:36;;;;;;;4.47;2.83;;;11.60;99.90;;;;;;5001688;28;20182;-67
2022/04/12 04:16:02;;;;;;;3.30;2.38;;;11.50;99.90;;;;;;4997948;28;20184;-67
2022/04/12 04:18:28;;;;;;;3.95;2.47;;;11.50;99.90;;;;;;4972210;28;20319;-67
2022/04/12 04:20:53;;;;;;;2.92;2.50;;;11.60;99.90;;;;;;4971235;28;20220;-67
2022/04/12 04:23:19;;;;;;;3.65;2.53;;;11.50;99.90;;;;;;4987587;28;20292;-61
2022/04/12 04:25:47;;;;;;;2.90;2.50;;;11.50;99.90;;;;;;4986731;28;20188;-62
2022/04/12 04:28:21;;;;;;;2.83;2.17;;;11.50;99.90;;;;;;5021964;28;20204;-62
2022/04/12 04:30:49;;;;;;;2.50;2.17;;;11.50;99.90;;;;;;4977679;28;20185;-62
2022/04/12 04:33:20;;;;;;;3.28;2.47;;;11.50;99.90;;;;;;4966488;28;20184;-63
2022/04/12 04:35:47;;;;;;;6.53;4.30;;;11.50;99.90;;;;;;4958301;28;20266;-63
2022/04/12 04:38:15;;;;;;;5.10;3.40;;;11.40;99.90;;;;;;4972444;28;20190;-63
2022/04/12 04:40:44;;;;;;;3.63;2.88;;;11.40;99.90;;;;;;4971484;28;20249;-63
2022/04/12 04:43:09;;;;;;;4.57;2.80;;;11.40;99.90;;;;;;4960712;28;20238;-63
2022/04/12 04:45:38;;;;;;;3.17;2.47;;;11.40;99.90;;;;;;5004845;28;20191;-63
2022/04/12 04:48:07;;;;;;;4.20;2.83;;;11.40;99.90;;;;;;4973968;28;20215;-63
2022/04/12 04:50:33;;;;;;;4.75;2.53;;;11.30;99.90;;;;;;4995073;28;20243;-63
2022/04/12 04:53:02;;;;;;;3.17;2.42;;;11.30;99.90;;;;;;4985727;28;20243;-62
2022/04/12 04:55:28;;;;;;;3.25;2.33;;;11.30;99.90;;;;;;4996321;28;20261;-63
2022/04/12 04:57:56;;;;;;;3.30;2.28;;;11.30;99.90;;;;;;4993509;28;20313;-63
2022/04/12 05:00:25;;;;;;;2.72;2.22;;;11.20;99.90;;;;;;5003461;28;20215;-63
2022/04/12 05:02:52;;;;;;;4.05;2.30;;;11.20;99.90;;;;;;5001915;28;20195;-63
2022/04/12 05:05:18;;;;;;;2.85;2.40;;;11.20;99.90;;;;;;4996226;28;20179;-62
2022/04/12 05:07:46;;;;;;;3.08;2.05;;;11.20;99.90;;;;;;4996526;28;20205;-63
2022/04/12 05:10:21;;;;;;;3.35;2.00;;;11.10;99.90;;;;;;4995852;28;20176;-61
2022/04/12 05:12:51;;;;;;;3.58;2.17;;;11.10;99.90;;;;;;4994574;28;20183;-63
2022/04/12 05:15:17;;;;;;;3.17;2.30;;;11.10;99.90;;;;;;4973094;28;20204;-62
2022/04/12 05:17:53;;;;;;;3.90;2.60;;;11.00;99.90;;;;;;4983056;28;20187;-63
2022/04/12 05:20:21;;;;;;;7.10;2.78;;;11.00;99.90;;;;;;4972553;28;20196;-63
2022/04/12 05:22:47;;;;;;;4.68;2.35;;;11.00;99.90;;;;;;4971762;28;20195;-62
2022/04/12 05:25:14;;;;;;;3.15;2.45;;;11.00;99.90;;;;;;4999151;28;20210;-65
2022/04/12 05:27:43;;;;;;;3.58;2.40;;;11.00;99.90;;;;;;5006170;28;20817;-62
2022/04/12 05:30:10;;;;;;;3.90;2.42;;;11.00;99.90;;;;;;4997254;28;20199;-63
2022/04/12 05:32:39;;;;;;;4.05;2.83;;;11.00;99.90;;;;;;4983210;28;20190;-63
2022/04/12 05:35:08;;;;;;;3.85;2.70;;;11.00;99.90;;;;;;4963092;28;20212;-63
2022/04/12 05:37:45;;;;;;;3.85;2.67;;;11.00;99.90;;;;;;4985636;28;20192;-61
2022/04/12 05:40:12;;;;;;;4.68;3.00;;;11.10;99.90;;;;;;4996802;28;20212;-63
2022/04/12 05:42:41;;;;;;;3.97;2.78;;;11.20;99.90;;;;;;4971796;28;20188;-64
2022/04/12 05:45:10;;;;;;;4.05;2.33;;;11.20;99.90;;;;;;5023436;28;20187;-63
2022/04/12 05:47:53;;;;;;;3.42;2.40;;;11.30;99.90;;;;;;5002037;28;20192;-63
2022/04/12 05:50:23;;;;;;;4.18;2.65;;;11.40;99.90;;;;;;4984499;28;20176;-64
2022/04/12 05:52:49;;;;;;;4.28;2.78;;;11.40;99.90;;;;;;5016690;28;20223;-63
2022/04/12 05:55:18;;;;;;;3.55;2.50;;;11.50;99.90;;;;;;4966309;28;20211;-63
2022/04/12 05:57:54;;;;;;;2.50;2.22;;;11.60;99.90;;;;;;4973982;28;20263;-63
2022/04/12 06:00:21;;;;;;;3.95;2.63;;;11.60;99.90;;;;;;4997434;28;20253;-63
2022/04/12 06:02:50;;;;;;;4.82;2.85;;;11.70;99.90;;;;;;4999795;28;20207;-63
2022/04/12 06:05:19;;;;;;;4.60;2.35;;;11.80;99.90;;;;;;4969475;28;20427;-63
2022/04/12 06:07:47;;;;;;;3.00;2.40;;;11.80;99.90;;;;;;4966832;28;20196;-63
2022/04/12 06:10:15;;;;;;;3.45;2.28;;;11.90;99.90;;;;;;4952016;29;20219;-64
2022/04/12 06:12:41;;;;;;;3.20;2.30;;;12.00;99.90;;;;;;4952022;28;20192;-63
2022/04/12 06:15:10;;;;;;;3.50;2.67;;;12.10;99.90;;;;;;4998094;28;20196;-64
2022/04/12 06:17:37;;;;;;;3.88;2.60;;;12.20;99.90;;;;;;4962505;28;20177;-64
2022/04/12 06:20:09;;;;;;;4.20;2.63;;;12.20;99.90;;;;;;4969433;28;20200;-64
2022/04/12 06:22:35;;;;;;;3.55;2.58;;;12.30;99.90;;;;;;4961802;28;20179;-64
2022/04/12 06:25:04;;;;;;;6.53;2.92;;;12.40;99.90;;;;;;4968033;28;20207;-64
2022/04/12 06:27:51;;;;;;;4.20;2.80;;;12.50;99.90;;;;;;4970400;28;20241;-64
2022/04/12 06:30:22;;;;;;;4.13;2.58;;;12.60;99.90;;;;;;4955567;28;20417;-63
2022/04/12 06:32:51;;;;;;;3.97;2.60;;;12.60;99.90;;;;;;4997320;28;20239;-63
2022/04/12 06:35:18;;;;;;;4.65;2.80;;;12.70;99.90;;;;;;4974395;28;20207;-63
2022/04/12 06:37:47;;;;;;;4.13;2.53;;;12.80;99.90;;;;;;4963830;28;20206;-64
2022/04/12 06:40:15;;;;;;;3.75;2.88;;;12.90;99.90;;;;;;4973936;28;20208;-63
2022/04/12 06:42:44;;;;;;;3.95;2.88;;;13.00;99.90;;;;;;4967378;28;20200;-63
2022/04/12 06:45:11;;;;;;;4.57;2.63;;;13.00;99.90;;;;;;4955451;29;20235;-63
2022/04/12 06:47:37;;;;;;;3.40;2.72;;;13.10;99.90;;;;;;5006073;28;20222;-63
2022/04/12 06:50:04;;;;;;;4.57;2.75;;;13.10;99.90;;;;;;4968713;28;20270;-63
2022/04/12 06:52:30;;;;;;;4.43;2.85;;;13.20;99.90;;;;;;4974169;28;20212;-63
2022/04/12 06:54:58;;;;;;;3.78;2.47;;;13.30;99.90;;;;;;4972969;28;20212;-62
2022/04/12 06:57:24;;;;;;;6.22;3.15;;;13.40;99.90;;;;;;4973778;28;20187;-63
2022/04/12 06:59:51;;;;;;;4.07;3.05;;;13.40;99.90;;;;;;4983475;28;20201;-62
2022/04/12 07:02:19;;;;;;;4.60;2.83;;;13.40;99.90;;;;;;4971904;28;20183;-63
2022/04/12 07:04:47;;;;;;;5.25;3.53;;;13.50;99.90;;;;;;4963354;28;20200;-63
2022/04/12 07:07:13;;;;;;;4.97;2.80;;;13.60;99.90;;;;;;4984402;28;20168;-63
2022/04/12 07:09:38;;;;;;;3.70;2.78;;;13.60;99.90;;;;;;5036327;28;20203;-63
2022/04/12 07:12:07;;;;;;;4.35;3.55;;;13.70;99.90;;;;;;4969193;28;20285;-63
2022/04/12 07:14:34;;;;;;;4.45;3.17;;;13.70;99.90;;;;;;5020469;28;20201;-63
2022/04/12 07:17:00;;;;;;;3.95;2.53;;;13.80;99.90;;;;;;4984808;28;20203;-63
2022/04/12 07:19:26;;;;;;;4.82;2.72;;;13.90;99.90;;;;;;4968488;28;20184;-63
2022/04/12 07:21:54;;;;;;;5.40;2.92;;;13.90;99.90;;;;;;4971318;28;20184;-63
2022/04/12 07:24:20;;;;;;;6.45;3.20;;;14.00;99.90;;;;;;5062779;28;20198;-62
2022/04/12 07:26:46;;;;;;;7.03;3.20;;;14.00;99.90;;;;;;4972981;28;20176;-63
2022/04/12 07:29:12;;;;;;;5.25;3.00;;;14.10;99.90;;;;;;4992266;28;20184;-63
2022/04/12 07:31:38;;;;;;;4.20;2.70;;;14.10;99.90;;;;;;4983236;28;20172;-63
2022/04/12 07:34:09;;;;;;;6.45;3.00;;;14.10;99.90;;;;;;4975611;28;20184;-64
2022/04/12 07:36:39;;;;;;;4.18;2.72;;;14.20;99.90;;;;;;4970416;28;20204;-63
2022/04/12 07:39:06;;;;;;;5.15;2.88;;;14.20;99.90;;;;;;4998246;28;20176;-63
2022/04/12 07:41:34;;;;;;;4.82;2.95;;;14.30;99.90;;;;;;4971096;28;20180;-64
2022/04/12 07:43:59;;;;;;;6.30;3.20;;;14.30;99.90;;;;;;4968664;28;20279;-64
2022/04/12 07:46:27;;;;;;;4.75;3.22;;;14.40;99.90;;;;;;4957500;28;20264;-64
2022/04/12 07:48:53;;;;;;;4.18;3.20;;;14.40;99.90;;;;;;4971967;28;20204;-64
2022/04/12 07:51:19;;;;;;;4.07;3.30;;;14.40;99.90;;;;;;4969927;28;20189;-64
2022/04/12 07:53:47;;;;;;;5.78;3.50;;;14.50;99.90;;;;;;4969541;28;20181;-64
2022/04/12 07:56:12;;;;;;;6.63;3.10;;;14.50;99.90;;;;;;4983346;28;20196;-64
2022/04/12 07:58:43;;;;;;;5.25;2.92;;;14.50;99.90;;;;;;4972384;28;20172;-64
2022/04/12 08:01:08;;;;;;;4.97;3.10;;;14.60;99.90;;;;;;4967083;28;20169;-63
2022/04/12 08:03:36;;;;;;;3.15;2.65;;;14.60;99.90;;;;;;4969416;28;20198;-64
2022/04/12 08:06:03;;;;;;;4.72;3.25;;;14.70;99.90;;;;;;4993572;28;20180;-64
2022/04/12 08:08:29;;;;;;;4.75;3.20;;;14.70;99.90;;;;;;4964435;28;20219;-63
2022/04/12 08:10:54;;;;;;;4.55;2.97;;;14.80;99.90;;;;;;4970568;28;20180;-64
2022/04/12 08:13:22;;;;;;;4.15;2.90;;;14.90;99.90;;;;;;4959062;28;20271;-64
2022/04/12 08:15:50;;;;;;;5.03;2.88;;;14.90;99.90;;;;;;4969277;28;20280;-63
2022/04/12 08:18:16;;;;;;;4.50;3.20;;;15.00;99.90;;;;;;5042437;28;20214;-62
2022/04/12 08:20:42;;;;;;;6.20;3.15;;;15.10;98.80;;;;;;4964375;28;20325;-64
2022/04/12 08:23:08;;;;;;;4.82;2.85;;;15.20;98.90;;;;;;4979034;28;20187;-64
2022/04/12 08:25:34;;;;;;;4.28;2.83;;;15.30;99.10;;;;;;4972406;28;20202;-64
2022/04/12 08:27:59;;;;;;;5.18;3.28;;;15.30;98.60;;;;;;4971628;28;20274;-64
2022/04/12 08:30:25;;;;;;;3.30;2.53;;;15.40;98.60;;;;;;5005938;28;20415;-63
2022/04/12 08:32:51;;;;;;;3.78;2.83;;;15.50;99.30;;;;;;4987854;28;20180;-63
2022/04/12 08:35:19;;;;;;;5.15;3.08;;;15.50;99.10;;;;;;4997485;28;20261;-64
2022/04/12 08:37:47;;;;;;;3.85;2.42;;;15.60;97.40;;;;;;4965433;28;20283;-64
2022/04/12 08:40:14;;;;;;;3.50;2.65;;;15.70;98.20;;;;;;4968720;28;20201;-63
2022/04/12 08:42:41;;;;;;;3.75;2.50;;;15.70;98.50;;;;;;4971141;28;20183;-62
2022/04/12 08:45:09;;;;;;;2.85;2.38;;;15.80;98.00;;;;;;4971303;28;20176;-63
2022/04/12 08:47:35;;;;;;;4.90;2.90;;;15.80;96.40;;;;;;4955048;28;20287;-62
2022/04/12 08:50:03;;;;;;;4.25;2.80;;;15.90;97.20;;;;;;4993930;28;20514;-64
2022/04/12 08:52:30;;;;;;;5.22;3.15;;;16.00;97.10;;;;;;4979798;28;20199;-64
2022/04/12 08:54:55;;;;;;;4.32;3.15;;;16.10;96.40;;;;;;4970101;28;20208;-64
2022/04/12 08:57:21;;;;;;;3.25;2.50;;;16.10;95.80;;;;;;4998639;28;20250;-64
2022/04/12 08:59:49;;;;;;;8.15;3.10;;;16.20;96.60;;;;;;4964541;28;20284;-64
2022/04/12 09:02:15;;;;;;;4.03;2.90;;;16.30;95.30;;;;;;4974023;28;20177;-63
2022/04/12 09:04:40;;;;;;;3.47;2.60;;;16.40;95.70;;;;;;4970109;28;20279;-64
2022/04/12 09:07:10;;;;;;;4.90;2.60;;;16.50;95.60;;;;;;4966823;28;20258;-64
2022/04/12 09:09:42;;;;;;;3.55;2.50;;;16.60;95.30;;;;;;5019188;28;20197;-64
2022/04/12 09:12:11;;;;;;;2.97;2.20;;;16.80;95.70;;;;;;5018942;28;20215;-64
2022/04/12 09:14:56;;;;;;;3.25;2.38;;;17.00;96.70;;;;;;4970754;28;20200;-62
2022/04/12 09:17:35;;;;;;;7.05;3.00;;;17.10;95.20;;;;;;4968932;28;20213;-64
2022/04/12 09:20:03;;;;;;;3.90;2.83;;;17.30;93.00;;;;;;4967430;28;20223;-64
2022/04/12 09:22:32;;;;;;;6.13;2.78;;;17.40;95.10;;;;;;5015243;28;20176;-64
2022/04/12 09:24:58;;;;;;;3.72;2.47;;;17.60;95.10;;;;;;4960133;28;20338;-65
2022/04/12 09:27:28;;;;;;;4.80;3.17;;;17.70;95.70;;;;;;4978993;28;20173;-64
2022/04/12 09:29:59;;;;;;;3.67;2.65;;;17.80;93.90;;;;;;4962908;28;20203;-65
2022/04/12 09:32:30;;;;;;;4.03;2.60;;;17.90;90.90;;;;;;4967175;28;20204;-65
2022/04/12 09:34:57;;;;;;;4.25;2.63;;;18.00;92.40;;;;;;4970467;28;20267;-64
2022/04/12 09:37:33;;;;;;;4.28;2.88;;;18.10;92.50;;;;;;4970556;28;20178;-63
2022/04/12 09:39:58;;;;;;;4.75;2.45;;;18.20;86.40;;;;;;4969049;28;20212;-61
2022/04/12 09:42:50;;;;;;;4.50;2.50;;;18.20;92.10;;;;;;4968012;28;20229;-64
2022/04/12 09:45:20;;;;;;;3.28;2.40;;;18.30;84.30;;;;;;4969108;28;20210;-64
2022/04/12 09:47:53;;;;;;;3.15;2.40;;;18.40;89.00;;;;;;4970236;28;20241;-64
2022/04/12 09:50:24;;;;;;;2.80;2.22;;;18.50;90.40;;;;;;4969497;28;20256;-63
2022/04/12 09:53:02;;;;;;;2.58;2.30;;;18.60;88.40;;;;;;4965617;28;20190;-64
2022/04/12 09:55:31;;;;;;;3.72;2.35;;;18.70;90.90;;;;;;5000649;28;20297;-64
2022/04/12 09:57:57;;;;;;;3.67;2.30;;;18.80;90.80;;;;;;5005448;28;20201;-62
2022/04/12 10:00:23;;;;;;;4.32;2.28;;;18.90;91.50;;;;;;4978256;28;20196;-62
2022/04/12 10:02:49;;;;;;;5.60;2.50;;;19.10;91.80;;;;;;4969707;28;20270;-63
2022/04/12 10:05:17;;;;;;;3.80;2.40;;;19.30;90.20;;;;;;4969401;28;20177;-63
2022/04/12 10:07:47;;;;;;;3.10;2.25;;;19.60;90.00;;;;;;5004766;28;20180;-64
2022/04/12 10:10:19;;;;;;;3.65;2.28;;;19.90;87.90;;;;;;5036656;28;20235;-63
2022/04/12 10:12:50;;;;;;;3.13;2.20;;;20.20;88.90;;;;;;4993021;28;20229;-64
2022/04/12 10:15:16;;;;;;;4.25;2.35;;;20.50;86.70;;;;;;4982273;28;20200;-64
2022/04/12 10:17:43;;;;;;;2.45;1.80;;;20.80;84.70;;;;;;4972671;28;20476;-63
2022/04/12 10:20:12;;;;;;;3.08;1.60;;;21.10;88.30;;;;;;4975394;28;20184;-63
2022/04/12 10:22:39;;;;;;;3.03;1.70;;;21.40;89.20;;;;;;4978429;28;20351;-63
2022/04/12 10:25:07;;;;;;;5.90;1.63;;;21.70;86.90;;;;;;4969814;28;20192;-65
2022/04/12 10:27:33;;;;;;;3.22;2.10;;;22.00;85.30;;;;;;4966724;28;20176;-65
2022/04/12 10:30:17;;;;;;;2.85;1.75;;;22.20;80.10;;;;;;4973166;28;20287;-64
2022/04/12 10:33:09;;;;;;;2.75;1.75;;;22.40;68.90;;;;;;4964294;28;20180;-64
2022/04/12 10:35:56;;;;;;;2.70;1.80;;;22.40;65.40;;;;;;4970194;28;20208;-64
2022/04/12 10:38:23;;;;;;;2.17;1.65;;;22.50;63.50;;;;;;4970736;28;20263;-64
2022/04/12 10:40:51;;;;;;;2.85;1.77;;;22.50;71.40;;;;;;4967122;28;20176;-64
2022/04/12 10:43:34;;;;;;;3.70;1.98;;;22.40;67.70;;;;;;4974102;28;20191;-64
2022/04/12 10:46:07;;;;;;;3.08;1.90;;;22.40;62.00;;;;;;4974064;28;20294;-64
2022/04/12 10:48:34;;;;;;;2.78;1.70;;;22.40;63.10;;;;;;5007040;28;20307;-64
2022/04/12 10:51:04;;;;;;;2.90;1.98;;;22.50;65.90;;;;;;4973998;28;20239;-64
2022/04/12 10:53:38;;;;;;;5.60;2.05;;;22.60;62.30;;;;;;4976584;28;20203;-64
2022/04/12 10:56:11;;;;;;;4.13;2.08;;;22.70;58.10;;;;;;5025172;28;20204;-64
2022/04/12 10:58:40;;;;;;;2.80;1.60;;;22.70;61.20;;;;;;4974027;28;20180;-64
2022/04/12 11:01:10;;;;;;;4.10;1.65;;;22.80;62.70;;;;;;4981658;28;20265;-64
2022/04/12 11:03:43;;;;;;;3.13;1.88;;;22.90;62.90;;;;;;4972052;28;20177;-64
2022/04/12 11:06:12;;;;;;;3.50;1.60;;;23.10;58.50;;;;;;5004214;28;20211;-64
2022/04/12 11:08:38;;;;;;;4.10;1.88;;;23.20;61.00;;;;;;4971917;28;20799;-64
2022/04/12 11:11:04;;;;;;;3.30;1.70;;;23.30;62.90;;;;;;4973369;28;20181;-64
2022/04/12 11:13:38;;;;;;;3.78;1.65;;;23.40;63.90;;;;;;5008008;28;20215;-65
2022/04/12 11:16:09;;;;;;;2.75;1.55;;;23.50;63.20;;;;;;4966653;28;20203;-65
2022/04/12 11:18:50;;;;;;;2.08;1.48;;;23.70;66.30;;;;;;4972961;28;20206;-64
2022/04/12 11:21:18;;;;;;;3.75;1.80;;;23.90;59.10;;;;;;5002011;28;20244;-65
2022/04/12 11:24:17;;;;;;;2.47;1.60;;;23.90;64.00;;;;;;4959430;28;20196;-65
2022/04/12 11:27:07;;;;;;;2.63;1.60;;;24.00;56.70;;;;;;4972057;28;20204;-65
2022/04/12 11:29:33;;;;;;;3.58;1.80;;;24.10;61.60;;;;;;4999161;28;20423;-65
2022/04/12 11:32:04;;;;;;;2.92;1.50;;;24.20;62.90;;;;;;4965914;28;20180;-65
2022/04/12 11:34:31;;;;;;;3.03;1.67;;;24.30;62.90;;;;;;4997534;28;20226;-64
2022/04/12 11:36:57;;;;;;;1.92;1.50;;;24.30;63.30;;;;;;4977785;28;20237;-63
2022/04/12 11:39:27;;;;;;;3.88;1.70;;;24.40;64.20;;;;;;4971965;28;20288;-64
2022/04/12 11:41:58;;;;;;;3.03;1.40;;;24.40;59.40;;;;;;4967524;28;20195;-64
2022/04/12 11:44:24;;;;;;;2.70;1.42;;;24.50;58.30;;;;;;4964610;28;20185;-64
2022/04/12 11:46:57;;;;;;;2.10;1.30;;;24.50;62.20;;;;;;4990568;28;20315;-64
2022/04/12 11:49:31;;;;;;;2.67;1.20;;;24.50;58.80;;;;;;5006410;28;20176;-64
2022/04/12 11:52:04;;;;;;;1.92;1.50;;;24.50;59.50;;;;;;5006586;28;20215;-64
2022/04/12 11:54:32;;;;;;;2.40;1.25;;;24.50;60.20;;;;;;5001785;28;20186;-65
2022/04/12 11:56:59;;;;;;;1.90;1.30;;;24.50;61.10;;;;;;4969822;28;20185;-64
2022/04/12 11:59:27;;;;;;;2.03;1.27;;;24.50;61.10;;;;;;4972728;28;20188;-64
2022/04/12 12:01:59;;;;;;;2.00;1.45;;;24.50;61.50;;;;;;4972815;28;20191;-63
2022/04/12 12:04:37;;;;;;;3.00;1.38;;;24.50;62.70;;;;;;4966514;28;20196;-64
2022/04/12 12:07:07;;;;;;;5.93;1.42;;;24.50;59.20;;;;;;4986577;28;20179;-65
2022/04/12 12:09:35;;;;;;;2.63;1.20;;;24.50;59.00;;;;;;4971495;28;20204;-64
2022/04/12 12:12:06;;;;;;;4.32;1.52;;;24.50;60.20;;;;;;4968498;28;20212;-64
2022/04/12 12:14:36;;;;;;;2.72;1.40;;;24.60;59.50;;;;;;4991762;28;20176;-65
2022/04/12 12:17:18;;;;;;;2.92;1.30;;;24.60;59.20;;;;;;4975297;28;20196;-65
2022/04/12 12:19:49;;;;;;;1.58;1.23;;;24.70;55.20;;;;;;4969872;28;20214;-65
2022/04/12 12:22:15;;;;;;;3.35;1.20;;;24.70;55.10;;;;;;4976512;28;20629;-64
2022/04/12 12:24:57;;;;;;;2.90;1.23;;;24.80;58.20;;;;;;5003313;28;20263;-64
2022/04/12 12:27:35;;;;;;;2.92;1.10;;;24.90;57.60;;;;;;4982969;28;20176;-64
2022/04/12 12:30:20;;;;;;;2.03;1.10;;;24.90;59.30;;;;;;5017850;28;20192;-64
2022/04/12 12:32:52;;;;;;;1.80;1.08;;;25.00;57.30;;;;;;5002734;28;20215;-66
2022/04/12 12:35:20;;;;;;;2.85;1.20;;;25.10;59.00;;;;;;4971582;28;20216;-66
2022/04/12 12:37:46;;;;;;;2.08;1.20;;;25.20;59.80;;;;;;4962213;28;20202;-66
2022/04/12 12:40:26;;;;;;;2.17;1.20;;;25.30;60.30;;;;;;4978411;28;20545;-66
2022/04/12 12:42:55;;;;;;;2.20;1.17;;;25.30;57.10;;;;;;5003068;28;20175;-66
2022/04/12 12:45:23;;;;;;;2.67;1.00;;;25.40;59.90;;;;;;5024820;28;20234;-66
2022/04/12 12:47:51;;;;;;;2.38;1.30;;;25.40;58.10;;;;;;5005827;28;20235;-67
2022/04/12 12:50:21;;;;;;;2.72;1.30;;;25.30;57.50;;;;;;4976070;28;20204;-65
2022/04/12 12:52:47;;;;;;;2.80;1.23;;;25.20;57.10;;;;;;4955356;28;20188;-67
2022/04/12 12:55:18;;;;;;;1.55;1.02;;;25.20;58.20;;;;;;4971486;28;20204;-66
2022/04/12 12:57:52;;;;;;;3.10;1.20;;;25.20;58.40;;;;;;4963238;28;20187;-67